Time;durP1;ratioP1;P1;durP2;ratioP2;P2;SDS_P1;SDS_P2;PMS_P1;PMS_P2;Temp;Humidity;BMP_temperature;BMP_pressure;BME280_temperature;BME280_humidity;BME280_pressure;Samples;Min_cycle;Max_cycle;Signal;HPM_P1;HPM_P2
2023/05/23 00:01:57;;;;;;;25.80;19.60;;;20.10;99.90;;;;;;5066508;28;20420;-75
2023/05/23 00:04:25;;;;;;;26.05;19.63;;;20.00;99.90;;;;;;5070217;28;20032;-75
2023/05/23 00:06:52;;;;;;;28.75;19.38;;;20.00;99.90;;;;;;5069365;28;20052;-75
2023/05/23 00:09:18;;;;;;;28.20;20.98;;;19.90;99.90;;;;;;5068638;28;20044;-76
2023/05/23 00:11:44;;;;;;;26.63;20.35;;;19.90;99.90;;;;;;5064501;28;20058;-75
2023/05/23 00:14:13;;;;;;;24.42;20.42;;;19.90;99.90;;;;;;5074577;28;20075;-76
2023/05/23 00:16:45;;;;;;;28.40;20.95;;;19.90;99.90;;;;;;5078074;28;20025;-76
2023/05/23 00:19:13;;;;;;;24.60;20.33;;;19.90;99.90;;;;;;5068671;28;20036;-73
2023/05/23 00:21:39;;;;;;;26.48;21.40;;;19.90;99.90;;;;;;5071470;28;20021;-76
2023/05/23 00:24:05;;;;;;;25.88;20.92;;;19.80;99.90;;;;;;5070616;28;20097;-76
2023/05/23 00:26:31;;;;;;;29.48;21.55;;;19.90;99.90;;;;;;5072976;28;20029;-75
2023/05/23 00:28:57;;;;;;;29.58;20.70;;;19.90;99.90;;;;;;5067502;28;20427;-72
2023/05/23 00:31:22;;;;;;;29.83;21.73;;;19.80;99.90;;;;;;5069385;28;20029;-74
2023/05/23 00:33:48;;;;;;;32.67;21.73;;;19.80;99.90;;;;;;5075191;28;20550;-71
2023/05/23 00:36:14;;;;;;;26.73;21.20;;;19.80;99.90;;;;;;5070417;28;20032;-74
2023/05/23 00:38:39;;;;;;;27.63;21.47;;;19.80;99.90;;;;;;5066749;28;20799;-75
2023/05/23 00:41:05;;;;;;;29.23;21.47;;;19.80;99.90;;;;;;5068600;28;20271;-77
2023/05/23 00:43:30;;;;;;;27.17;22.30;;;19.80;99.90;;;;;;5064761;28;20040;-77
2023/05/23 00:45:57;;;;;;;26.63;22.07;;;19.80;99.90;;;;;;5065379;28;20294;-76
2023/05/23 00:48:24;;;;;;;31.30;22.88;;;19.80;99.90;;;;;;5072124;28;20474;-74
2023/05/23 00:50:50;;;;;;;27.67;22.58;;;19.80;99.90;;;;;;5070332;28;20060;-75
2023/05/23 00:53:16;;;;;;;27.25;22.70;;;19.80;99.90;;;;;;5064541;28;20114;-76
2023/05/23 00:55:43;;;;;;;29.35;22.15;;;19.80;99.90;;;;;;5068521;28;20034;-78
2023/05/23 00:58:09;;;;;;;28.58;22.23;;;19.70;99.90;;;;;;5071080;28;20665;-70
2023/05/23 01:00:37;;;;;;;;;;;19.70;99.90;;;;;;5067094;28;20024;-76
2023/05/23 01:03:03;;;;;;;30.58;23.40;;;19.70;99.90;;;;;;5063972;28;19908;-74
2023/05/23 01:05:29;;;;;;;;;;;19.70;99.90;;;;;;5071769;28;20028;-71
2023/05/23 01:07:55;;;;;;;29.02;22.90;;;19.60;99.90;;;;;;5070404;28;20296;-75
2023/05/23 01:10:24;;;;;;;29.00;22.90;;;19.60;99.90;;;;;;5069528;28;20399;-76
2023/05/23 01:13:16;;;;;;;29.30;23.05;;;19.60;99.90;;;;;;5095918;27;20136;-77
2023/05/23 01:15:54;;;;;;;31.90;23.33;;;19.50;99.90;;;;;;5061538;28;20035;-76
2023/05/23 01:18:29;;;;;;;31.55;24.67;;;19.60;99.90;;;;;;5055311;28;20040;-76
2023/05/23 01:20:58;;;;;;;28.73;21.45;;;19.60;99.90;;;;;;5070735;28;20034;-77
2023/05/23 01:23:48;;;;;;;29.17;24.15;;;19.60;99.90;;;;;;5070754;28;20036;-77
2023/05/23 01:26:45;;;;;;;37.72;24.83;;;19.60;99.90;;;;;;5069910;28;20172;-71
2023/05/23 01:29:13;;;;;;;32.55;23.45;;;19.60;99.90;;;;;;5071310;28;20411;-77
2023/05/23 01:31:44;;;;;;;31.85;24.17;;;19.60;99.90;;;;;;5061387;28;20028;-75
2023/05/23 01:34:12;;;;;;;35.30;24.77;;;19.60;99.90;;;;;;5070803;28;20438;-76
2023/05/23 01:36:44;;;;;;;34.63;24.00;;;19.60;99.90;;;;;;5073950;28;20027;-73
2023/05/23 01:39:10;;;;;;;37.13;25.10;;;19.50;99.90;;;;;;5065298;28;20681;-72
2023/05/23 01:41:36;;;;;;;32.63;24.85;;;19.50;99.90;;;;;;5066821;28;20019;-75
2023/05/23 01:44:03;;;;;;;37.90;25.10;;;19.60;99.90;;;;;;5064725;28;20076;-76
2023/05/23 01:46:29;;;;;;;36.70;24.77;;;19.60;99.90;;;;;;5062681;28;20028;-77
2023/05/23 01:48:57;;;;;;;31.25;23.80;;;19.50;99.90;;;;;;5063735;28;20071;-76
2023/05/23 01:51:23;;;;;;;36.25;25.55;;;19.50;99.90;;;;;;5069102;28;20081;-76
2023/05/23 01:53:51;;;;;;;33.25;25.60;;;19.50;99.90;;;;;;5065970;28;20028;-71
2023/05/23 01:56:18;;;;;;;36.28;25.27;;;19.50;99.90;;;;;;5065938;28;20029;-73
2023/05/23 01:58:44;;;;;;;37.15;25.85;;;19.50;99.90;;;;;;5069688;28;20040;-70
2023/05/23 02:01:10;;;;;;;31.57;24.97;;;19.40;99.90;;;;;;5067865;28;20131;-68
2023/05/23 02:03:36;;;;;;;37.08;26.52;;;19.30;99.90;;;;;;5068360;28;20112;-76
2023/05/23 02:06:01;;;;;;;40.70;25.40;;;19.30;99.90;;;;;;5068077;28;20036;-76
2023/05/23 02:08:27;;;;;;;36.57;26.30;;;19.40;99.90;;;;;;5072437;28;20111;-73
2023/05/23 02:10:52;;;;;;;36.60;26.20;;;19.30;99.90;;;;;;5069957;28;20028;-76
2023/05/23 02:13:18;;;;;;;32.17;25.43;;;19.30;99.90;;;;;;5069286;28;20035;-76
2023/05/23 02:15:44;;;;;;;34.93;26.47;;;19.20;99.90;;;;;;5068180;28;20052;-78
2023/05/23 02:18:09;;;;;;;36.23;25.70;;;19.20;99.90;;;;;;5072865;28;20098;-74
2023/05/23 02:20:35;;;;;;;34.40;25.63;;;19.20;99.90;;;;;;5071422;28;20116;-77
2023/05/23 02:23:00;;;;;;;37.70;26.93;;;19.20;99.90;;;;;;5070844;28;20032;-77
2023/05/23 02:25:26;;;;;;;39.17;27.87;;;19.20;99.90;;;;;;5066882;28;20087;-77
2023/05/23 02:27:51;;;;;;;38.80;26.13;;;19.10;99.90;;;;;;5069241;28;20036;-72
2023/05/23 02:30:17;;;;;;;34.63;26.17;;;19.10;99.90;;;;;;5068197;28;20020;-77
2023/05/23 02:32:43;;;;;;;38.85;27.52;;;19.00;99.90;;;;;;5066394;28;20029;-73
2023/05/23 02:35:09;;;;;;;37.00;27.63;;;19.00;99.90;;;;;;5065939;28;20029;-77
2023/05/23 02:37:35;;;;;;;;;;;19.10;99.90;;;;;;5076595;28;20032;-77
2023/05/23 02:40:00;;;;;;;40.22;27.13;;;19.10;99.90;;;;;;5070850;28;19912;-77
2023/05/23 02:42:26;;;;;;;36.37;27.20;;;19.10;99.90;;;;;;5063181;28;20035;-76
2023/05/23 02:44:52;;;;;;;37.72;27.42;;;19.10;99.90;;;;;;5063261;28;20032;-73
2023/05/23 02:47:17;;;;;;;33.87;26.37;;;19.00;99.90;;;;;;5072739;28;20500;-75
2023/05/23 02:49:43;;;;;;;40.23;28.53;;;19.00;99.90;;;;;;5067472;28;20043;-77
2023/05/23 02:52:09;;;;;;;38.73;29.50;;;19.00;99.90;;;;;;5071201;28;20033;-77
2023/05/23 02:54:34;;;;;;;41.13;28.57;;;18.90;99.90;;;;;;5074982;28;20463;-77
2023/05/23 02:57:00;;;;;;;36.97;27.57;;;18.90;99.90;;;;;;5067587;28;20299;-75
2023/05/23 02:59:26;;;;;;;38.00;27.67;;;18.80;99.90;;;;;;5070502;28;20519;-74
2023/05/23 03:01:51;;;;;;;38.13;28.02;;;18.80;99.90;;;;;;5068675;28;20060;-76
2023/05/23 03:04:17;;;;;;;40.00;27.67;;;18.90;99.90;;;;;;5077538;28;20542;-76
2023/05/23 03:06:43;;;;;;;39.87;27.97;;;18.90;99.90;;;;;;5074273;28;20059;-73
2023/05/23 03:09:09;;;;;;;;;;;18.80;99.90;;;;;;5072263;28;20029;-77
2023/05/23 03:11:35;;;;;;;36.78;27.23;;;18.80;99.90;;;;;;5069176;28;20273;-75
2023/05/23 03:14:01;;;;;;;40.00;28.67;;;18.70;99.90;;;;;;5064391;28;20028;-75
2023/05/23 03:16:26;;;;;;;37.67;28.40;;;18.80;99.90;;;;;;5072160;28;20032;-76
2023/05/23 03:18:52;;;;;;;42.33;29.40;;;18.70;99.90;;;;;;5067606;28;20040;-75
2023/05/23 03:21:18;;;;;;;41.30;29.53;;;18.70;99.90;;;;;;5069498;28;20025;-70
2023/05/23 03:23:43;;;;;;;47.57;29.10;;;18.60;99.90;;;;;;5068136;28;20066;-71
2023/05/23 03:26:09;;;;;;;37.47;28.87;;;18.70;99.90;;;;;;5068379;28;20511;-76
2023/05/23 03:28:35;;;;;;;42.43;28.20;;;18.60;99.90;;;;;;5075083;28;20127;-74
2023/05/23 03:31:00;;;;;;;43.05;28.77;;;18.60;99.90;;;;;;5063744;28;20706;-75
2023/05/23 03:33:26;;;;;;;36.10;27.63;;;18.60;99.90;;;;;;5065994;28;20032;-75
2023/05/23 03:35:52;;;;;;;41.23;30.00;;;18.70;99.90;;;;;;5066652;28;20064;-76
2023/05/23 03:38:17;;;;;;;36.53;26.80;;;18.80;99.90;;;;;;5077053;28;20994;-76
2023/05/23 03:40:43;;;;;;;40.10;28.38;;;18.70;99.90;;;;;;5071804;28;20028;-75
2023/05/23 03:43:09;;;;;;;40.43;29.70;;;18.60;99.90;;;;;;5068343;28;20032;-76
2023/05/23 03:45:34;;;;;;;39.00;29.17;;;18.60;99.90;;;;;;5107198;27;20389;-71
2023/05/23 03:48:00;;;;;;;35.90;28.03;;;18.60;99.90;;;;;;5072050;28;20036;-76
2023/05/23 03:50:26;;;;;;;39.38;29.88;;;18.60;99.90;;;;;;5071903;28;20032;-75
2023/05/23 03:52:52;;;;;;;44.65;29.52;;;18.60;99.90;;;;;;5067140;28;20040;-73
2023/05/23 03:55:23;;;;;;;45.47;29.80;;;18.60;99.90;;;;;;5065857;28;20157;-72
2023/05/23 03:57:50;;;;;;;41.00;29.05;;;18.50;99.90;;;;;;5068118;28;20405;-73
2023/05/23 04:00:15;;;;;;;35.38;27.73;;;18.50;99.90;;;;;;5063317;28;20205;-71
2023/05/23 04:02:42;;;;;;;40.10;29.90;;;18.50;99.90;;;;;;5068366;28;20560;-74
2023/05/23 04:05:08;;;;;;;39.70;29.83;;;18.50;99.90;;;;;;5060126;28;20378;-76
2023/05/23 04:07:34;;;;;;;46.28;31.35;;;18.50;99.90;;;;;;5067997;28;20063;-73
2023/05/23 04:10:00;;;;;;;41.53;30.43;;;18.50;99.90;;;;;;5076739;28;20067;-76
2023/05/23 04:12:25;;;;;;;44.50;30.08;;;18.50;99.90;;;;;;5069979;28;20039;-70
2023/05/23 04:14:51;;;;;;;46.00;30.43;;;18.50;99.90;;;;;;5055368;28;20043;-74
2023/05/23 04:17:17;;;;;;;43.08;30.77;;;18.50;99.90;;;;;;5063575;28;20093;-74
2023/05/23 04:19:43;;;;;;;42.50;30.48;;;18.40;99.90;;;;;;5063246;28;20045;-75
2023/05/23 04:22:09;;;;;;;41.53;30.70;;;18.40;99.90;;;;;;5063424;28;20028;-75
2023/05/23 04:24:35;;;;;;;50.97;31.10;;;18.40;99.90;;;;;;5056414;28;20044;-72
2023/05/23 04:27:01;;;;;;;42.60;29.90;;;18.40;99.90;;;;;;5063979;28;20025;-72
2023/05/23 04:29:30;;;;;;;46.97;30.77;;;18.30;99.90;;;;;;5068640;28;20040;-76
2023/05/23 04:31:56;;;;;;;48.30;32.38;;;18.40;99.90;;;;;;5061661;28;20029;-77
2023/05/23 04:34:22;;;;;;;40.92;31.40;;;18.40;99.90;;;;;;5060703;28;20067;-77
2023/05/23 04:36:48;;;;;;;48.43;33.13;;;18.40;99.90;;;;;;5053976;28;20041;-77
2023/05/23 04:39:14;;;;;;;49.38;32.85;;;18.40;99.90;;;;;;5066929;28;20039;-75
2023/05/23 04:41:40;;;;;;;;;;;18.40;99.90;;;;;;5065884;28;20081;-71
2023/05/23 04:44:08;;;;;;;47.33;32.75;;;18.40;99.90;;;;;;5070524;28;19921;-76
2023/05/23 04:46:35;;;;;;;43.50;32.90;;;18.40;99.90;;;;;;5059985;28;20037;-74
2023/05/23 04:49:01;;;;;;;48.35;32.58;;;18.40;99.90;;;;;;5066373;28;20029;-76
2023/05/23 04:51:26;;;;;;;48.28;32.47;;;18.50;99.90;;;;;;5066691;28;20060;-75
2023/05/23 04:53:52;;;;;;;51.33;33.43;;;18.40;99.90;;;;;;5063746;28;21498;-77
2023/05/23 04:56:19;;;;;;;46.10;32.17;;;18.30;99.90;;;;;;5068324;28;20027;-74
2023/05/23 04:58:45;;;;;;;48.92;33.25;;;18.40;99.90;;;;;;5059115;28;20127;-77
2023/05/23 05:01:12;;;;;;;45.97;32.67;;;18.40;99.90;;;;;;5063555;28;20028;-71
2023/05/23 05:03:38;;;;;;;46.10;33.40;;;18.40;99.90;;;;;;5063719;28;20090;-77
2023/05/23 05:06:04;;;;;;;51.10;34.10;;;18.40;99.90;;;;;;5065803;28;20500;-77
2023/05/23 05:08:31;;;;;;;48.22;33.13;;;18.40;99.90;;;;;;5062766;28;20101;-77
2023/05/23 05:10:56;;;;;;;46.67;33.80;;;18.40;99.90;;;;;;5060979;28;20041;-71
2023/05/23 05:13:22;;;;;;;46.30;32.10;;;18.40;99.90;;;;;;5071675;28;20143;-74
2023/05/23 05:15:48;;;;;;;44.10;32.57;;;18.40;99.90;;;;;;5064565;28;20487;-75
2023/05/23 05:18:13;;;;;;;50.50;32.53;;;18.40;99.90;;;;;;5059122;28;20144;-75
2023/05/23 05:20:39;;;;;;;49.10;33.30;;;18.40;99.90;;;;;;5063266;28;20100;-74
2023/05/23 05:23:05;;;;;;;42.47;33.03;;;18.40;99.90;;;;;;5065646;28;20060;-72
2023/05/23 05:25:31;;;;;;;;;;;18.30;99.90;;;;;;5065944;28;20024;-80
2023/05/23 05:28:01;;;;;;;50.65;35.47;;;18.30;99.90;;;;;;5061334;28;20437;-76
2023/05/23 05:30:27;;;;;;;49.38;32.83;;;18.30;99.90;;;;;;5059265;28;20097;-77
2023/05/23 05:32:53;;;;;;;48.73;33.60;;;18.20;99.90;;;;;;5066479;28;20040;-78
2023/05/23 05:35:18;;;;;;;49.77;33.40;;;18.20;99.90;;;;;;5066820;28;20028;-80
2023/05/23 05:37:44;;;;;;;46.67;34.63;;;18.20;99.90;;;;;;5057986;28;20093;-76
2023/05/23 05:40:10;;;;;;;56.43;34.77;;;18.20;99.90;;;;;;5064963;28;20036;-78
2023/05/23 05:42:36;;;;;;;49.55;34.53;;;18.10;99.90;;;;;;5067635;28;20038;-78
2023/05/23 05:45:02;;;;;;;56.60;35.90;;;18.00;99.90;;;;;;5064437;28;20032;-75
2023/05/23 05:47:27;;;;;;;48.43;33.97;;;18.00;99.90;;;;;;5056960;28;20107;-78
2023/05/23 05:49:53;;;;;;;54.07;34.97;;;18.00;99.90;;;;;;5065141;28;20028;-78
2023/05/23 05:52:18;;;;;;;50.53;34.73;;;18.00;99.90;;;;;;5062754;28;20037;-73
2023/05/23 05:54:44;;;;;;;51.70;36.90;;;17.90;99.90;;;;;;5058782;28;20089;-77
2023/05/23 05:57:09;;;;;;;48.40;33.63;;;18.10;99.90;;;;;;5065304;28;20032;-74
2023/05/23 05:59:35;;;;;;;50.93;35.53;;;18.00;99.90;;;;;;5063597;28;20504;-75
2023/05/23 06:02:01;;;;;;;50.03;33.70;;;18.00;99.90;;;;;;5061752;28;20561;-76
2023/05/23 06:04:26;;;;;;;59.90;35.60;;;18.10;99.90;;;;;;5061303;28;20045;-74
2023/05/23 06:06:52;;;;;;;51.55;35.15;;;18.10;99.90;;;;;;5067097;28;20040;-76
2023/05/23 06:09:18;;;;;;;61.03;34.47;;;18.20;99.90;;;;;;5057631;28;20062;-72
2023/05/23 06:11:43;;;;;;;53.97;35.13;;;18.20;99.90;;;;;;5064974;28;20025;-76
2023/05/23 06:14:09;;;;;;;50.97;34.00;;;18.20;99.90;;;;;;5060535;28;20024;-76
2023/05/23 06:16:34;;;;;;;57.47;33.83;;;18.20;99.90;;;;;;5060496;28;20509;-72
2023/05/23 06:19:00;;;;;;;55.90;35.37;;;18.10;99.90;;;;;;5065488;28;20139;-72
2023/05/23 06:21:26;;;;;;;48.43;34.90;;;18.20;99.90;;;;;;5066873;28;20610;-76
2023/05/23 06:23:52;;;;;;;45.85;31.58;;;18.20;99.90;;;;;;5055408;28;20040;-77
2023/05/23 06:26:17;;;;;;;45.60;32.73;;;18.10;99.90;;;;;;5064420;28;20031;-77
2023/05/23 06:28:43;;;;;;;48.20;32.53;;;18.00;99.90;;;;;;5063000;28;20704;-74
2023/05/23 06:31:09;;;;;;;54.77;35.00;;;18.00;99.90;;;;;;5069339;28;20127;-70
2023/05/23 06:33:35;;;;;;;53.90;34.23;;;18.00;99.90;;;;;;5054855;28;20481;-77
2023/05/23 06:36:01;;;;;;;57.90;36.85;;;18.00;99.90;;;;;;5053760;28;20073;-75
2023/05/23 06:38:30;;;;;;;58.50;34.95;;;18.10;99.90;;;;;;5065665;28;20040;-73
2023/05/23 06:40:55;;;;;;;53.85;33.95;;;18.10;99.90;;;;;;5062806;28;20029;-75
2023/05/23 06:43:21;;;;;;;55.83;36.00;;;18.00;99.90;;;;;;5058183;28;20519;-74
2023/05/23 06:45:46;;;;;;;62.17;36.17;;;18.10;99.90;;;;;;5059795;28;20401;-74
2023/05/23 06:48:12;;;;;;;56.03;34.53;;;18.10;99.90;;;;;;5058293;28;20085;-76
2023/05/23 06:50:39;;;;;;;54.40;35.93;;;18.10;99.90;;;;;;5059615;28;20104;-74
2023/05/23 06:53:05;;;;;;;57.30;35.58;;;18.10;99.90;;;;;;5063157;28;20157;-72
2023/05/23 06:55:32;;;;;;;61.30;35.47;;;18.10;99.90;;;;;;5063225;28;20116;-76
2023/05/23 06:57:58;;;;;;;60.20;36.50;;;18.20;99.90;;;;;;5062636;28;20060;-75
2023/05/23 07:00:24;;;;;;;56.92;35.83;;;18.20;99.90;;;;;;5063237;28;20036;-74
2023/05/23 07:02:50;;;;;;;59.25;34.95;;;18.20;99.90;;;;;;5064537;28;20029;-74
2023/05/23 07:05:16;;;;;;;52.57;34.40;;;18.20;99.90;;;;;;5059677;28;20037;-75
2023/05/23 07:07:42;;;;;;;54.95;34.55;;;18.20;99.90;;;;;;5088411;28;20499;-75
2023/05/23 07:10:08;;;;;;;57.97;35.85;;;18.30;99.90;;;;;;5061791;28;20051;-74
2023/05/23 07:12:34;;;;;;;47.45;34.47;;;18.30;99.90;;;;;;5057200;28;20025;-79
2023/05/23 07:15:00;;;;;;;50.20;33.03;;;18.30;99.90;;;;;;5071407;28;20036;-78
2023/05/23 07:17:26;;;;;;;57.63;34.47;;;18.30;99.90;;;;;;5062669;28;20120;-77
2023/05/23 07:19:51;;;;;;;51.42;32.58;;;18.30;99.90;;;;;;5063113;28;20481;-76
2023/05/23 07:22:17;;;;;;;45.33;31.15;;;18.30;99.90;;;;;;5063186;28;20040;-82
2023/05/23 07:24:43;;;;;;;54.73;34.73;;;18.30;99.90;;;;;;5058010;28;20044;-74
2023/05/23 07:27:08;;;;;;;52.13;33.03;;;18.50;99.90;;;;;;5072402;28;20033;-74
2023/05/23 07:29:34;;;;;;;48.77;31.83;;;18.70;99.90;;;;;;5058670;28;20389;-75
2023/05/23 07:31:59;;;;;;;49.47;31.90;;;18.70;99.90;;;;;;5064764;28;20032;-76
2023/05/23 07:34:25;;;;;;;44.97;28.47;;;18.70;99.90;;;;;;5071204;28;20523;-77
2023/05/23 07:36:51;;;;;;;45.20;29.40;;;18.80;99.90;;;;;;5058847;28;20025;-75
2023/05/23 07:39:20;;;;;;;51.43;30.47;;;18.80;99.90;;;;;;5066995;28;20050;-76
2023/05/23 07:41:47;;;;;;;56.92;32.53;;;18.80;99.90;;;;;;5072417;28;20259;-75
2023/05/23 07:44:12;;;;;;;46.97;30.92;;;18.60;99.90;;;;;;5058905;28;20043;-76
2023/05/23 07:46:38;;;;;;;50.40;29.20;;;18.70;99.90;;;;;;5056996;28;20029;-76
2023/05/23 07:49:03;;;;;;;46.40;29.40;;;18.70;99.90;;;;;;5068662;28;20037;-75
2023/05/23 07:51:29;;;;;;;45.53;27.87;;;18.70;99.90;;;;;;5059826;28;20032;-75
2023/05/23 07:53:55;;;;;;;41.95;27.70;;;18.70;99.90;;;;;;5062481;28;20064;-76
2023/05/23 07:56:21;;;;;;;52.87;32.40;;;18.80;99.90;;;;;;5065607;28;20040;-74
2023/05/23 07:58:47;;;;;;;46.00;30.90;;;18.70;99.90;;;;;;5067333;28;20033;-75
2023/05/23 08:01:13;;;;;;;53.30;32.83;;;18.60;99.90;;;;;;5066719;28;20488;-75
2023/05/23 08:03:38;;;;;;;53.97;33.87;;;18.60;99.90;;;;;;5064795;28;20109;-74
2023/05/23 08:06:06;;;;;;;50.97;31.33;;;18.70;99.90;;;;;;5063587;28;20504;-75
2023/05/23 08:08:32;;;;;;;54.30;32.10;;;18.80;99.90;;;;;;5063908;28;20499;-76
2023/05/23 08:10:57;;;;;;;53.28;33.22;;;18.80;99.90;;;;;;5063589;28;20056;-74
2023/05/23 08:13:23;;;;;;;52.20;32.77;;;18.80;99.90;;;;;;5072414;28;20036;-75
2023/05/23 08:15:48;;;;;;;58.37;32.63;;;18.90;99.90;;;;;;5063806;28;20072;-76
2023/05/23 08:18:15;;;;;;;57.70;33.87;;;18.80;99.90;;;;;;5056614;28;20040;-75
2023/05/23 08:20:41;;;;;;;59.10;34.22;;;18.80;99.90;;;;;;5065910;28;20483;-76
2023/05/23 08:23:06;;;;;;;57.50;32.10;;;18.80;99.90;;;;;;5062489;28;20033;-74
2023/05/23 08:25:32;;;;;;;54.00;32.73;;;18.70;99.90;;;;;;5059446;28;20033;-76
2023/05/23 08:27:58;;;;;;;49.60;30.77;;;18.80;99.90;;;;;;5061929;28;20040;-75
2023/05/23 08:30:25;;;;;;;50.92;32.95;;;18.90;99.90;;;;;;5059855;28;20921;-76
2023/05/23 08:32:52;;;;;;;53.70;31.98;;;18.90;99.90;;;;;;5067696;28;20107;-75
2023/05/23 08:35:18;;;;;;;55.53;33.88;;;19.00;99.90;;;;;;5058958;28;20036;-76
2023/05/23 08:37:46;;;;;;;50.92;32.88;;;19.00;99.90;;;;;;5064232;28;20036;-75
2023/05/23 08:40:20;;;;;;;55.22;32.90;;;19.00;99.90;;;;;;5066049;28;20046;-76
2023/05/23 08:42:47;;;;;;;47.65;32.05;;;19.00;99.90;;;;;;5059708;28;20056;-76
2023/05/23 08:45:13;;;;;;;49.83;30.83;;;19.10;99.90;;;;;;5062385;28;20071;-74
2023/05/23 08:47:43;;;;;;;46.78;30.33;;;19.10;99.90;;;;;;5063068;28;20053;-75
2023/05/23 08:50:13;;;;;;;56.90;32.40;;;19.20;99.90;;;;;;5062812;28;20125;-75
2023/05/23 08:52:56;;;;;;;55.08;33.88;;;19.30;99.90;;;;;;5060738;28;20029;-76
2023/05/23 08:55:26;;;;;;;64.20;35.63;;;19.40;99.90;;;;;;5065498;28;20094;-75
2023/05/23 08:58:02;;;;;;;58.10;36.28;;;19.40;99.90;;;;;;5065321;28;20032;-75
2023/05/23 09:00:28;;;;;;;52.20;30.17;;;19.40;99.90;;;;;;5061031;28;20021;-77
2023/05/23 09:02:54;;;;;;;48.88;29.92;;;19.40;99.90;;;;;;5061544;28;20120;-78
2023/05/23 09:05:20;;;;;;;50.35;29.75;;;19.40;99.90;;;;;;5067616;28;20446;-77
2023/05/23 09:07:46;;;;;;;52.17;30.55;;;19.40;99.90;;;;;;5059243;28;20016;-78
2023/05/23 09:10:15;;;;;;;44.28;28.42;;;19.30;99.90;;;;;;5061618;28;20027;-78
2023/05/23 09:12:43;;;;;;;48.50;31.05;;;19.30;99.90;;;;;;5074178;28;20016;-79
2023/05/23 09:15:09;;;;;;;45.35;28.75;;;19.30;99.90;;;;;;5066541;28;20037;-78
2023/05/23 09:17:36;;;;;;;45.95;30.92;;;19.30;99.90;;;;;;5059939;28;20029;-78
2023/05/23 09:20:04;;;;;;;44.88;31.10;;;19.40;99.90;;;;;;5061773;28;20033;-75
2023/05/23 09:22:30;;;;;;;54.20;31.80;;;19.40;99.90;;;;;;5061835;28;20503;-72
2023/05/23 09:24:56;;;;;;;52.27;32.93;;;19.40;99.90;;;;;;5065865;28;20111;-72
2023/05/23 09:27:22;;;;;;;46.65;31.65;;;19.50;99.90;;;;;;5060065;28;20050;-73
2023/05/23 09:29:49;;;;;;;52.28;30.23;;;19.40;99.90;;;;;;5065052;28;20040;-73
2023/05/23 09:32:16;;;;;;;46.90;30.58;;;19.50;99.90;;;;;;5059853;28;20103;-73
2023/05/23 09:35:01;;;;;;;46.55;28.67;;;19.50;99.90;;;;;;5094035;27;20036;-72
2023/05/23 09:37:44;;;;;;;51.33;29.35;;;19.40;99.90;;;;;;5059551;28;20029;-72
2023/05/23 09:40:12;;;;;;;46.05;30.13;;;19.40;99.90;;;;;;5066918;28;20039;-72
2023/05/23 09:42:46;;;;;;;50.65;30.55;;;19.50;99.90;;;;;;5061631;28;20083;-72
2023/05/23 09:45:12;;;;;;;54.67;32.60;;;19.50;99.90;;;;;;5061687;28;20035;-72
2023/05/23 09:47:38;;;;;;;;;;;19.60;99.90;;;;;;5068211;28;20071;-73
2023/05/23 09:50:04;;;;;;;54.22;32.92;;;19.50;99.90;;;;;;5063350;28;19944;-73
2023/05/23 09:52:37;;;;;;;62.75;33.60;;;19.60;99.90;;;;;;5092898;27;20067;-72
2023/05/23 09:55:02;;;;;;;62.13;35.30;;;19.50;99.90;;;;;;5061787;28;20048;-72
2023/05/23 09:57:29;;;;;;;62.97;38.33;;;19.60;99.90;;;;;;5063795;28;20503;-72
2023/05/23 09:59:59;;;;;;;63.25;34.17;;;19.50;99.90;;;;;;5062704;28;20307;-73
2023/05/23 10:02:56;;;;;;;64.55;36.58;;;19.50;99.90;;;;;;5062626;28;20054;-73
2023/05/23 10:05:55;;;;;;;57.00;34.17;;;19.40;99.90;;;;;;5058644;28;20036;-73
2023/05/23 10:08:30;;;;;;;64.95;35.70;;;19.40;99.90;;;;;;5062248;28;20032;-73
2023/05/23 10:10:55;;;;;;;66.85;35.97;;;19.40;99.90;;;;;;5060259;28;20047;-72
2023/05/23 10:13:28;;;;;;;76.60;36.50;;;19.40;99.90;;;;;;5062788;28;20536;-76
2023/05/23 10:16:08;;;;;;;57.63;33.53;;;19.40;99.90;;;;;;5066836;28;20056;-75
2023/05/23 10:18:40;;;;;;;59.08;35.03;;;19.40;99.90;;;;;;5058140;28;20489;-73
2023/05/23 10:21:10;;;;;;;54.83;31.58;;;19.40;99.90;;;;;;5062847;28;20025;-73
2023/05/23 10:23:37;;;;;;;63.50;34.20;;;19.50;99.90;;;;;;5061089;28;20494;-74
2023/05/23 10:26:03;;;;;;;;;;;19.60;99.90;;;;;;5065170;28;20029;-76
2023/05/23 10:28:31;;;;;;;60.63;36.38;;;19.50;99.90;;;;;;5066503;28;20015;-75
2023/05/23 10:30:57;;;;;;;64.10;36.40;;;19.40;99.90;;;;;;5062734;28;20028;-74
2023/05/23 10:33:23;;;;;;;62.35;34.55;;;19.40;99.90;;;;;;5060602;28;20115;-77
2023/05/23 10:36:11;;;;;;;65.38;34.00;;;19.40;99.90;;;;;;5056274;28;20032;-75
2023/05/23 10:39:04;;;;;;;65.85;35.08;;;19.40;99.90;;;;;;5057468;28;20095;-75
2023/05/23 10:41:40;;;;;;;66.55;35.95;;;19.60;99.90;;;;;;5058182;28;20017;-75
2023/05/23 10:44:27;;;;;;;62.30;35.83;;;19.60;99.90;;;;;;5083010;28;20040;-73
2023/05/23 10:47:00;;;;;;;60.67;34.33;;;19.70;99.90;;;;;;5063409;28;20424;-73
2023/05/23 10:49:42;;;;;;;56.88;33.38;;;19.80;99.90;;;;;;5069537;28;20385;-72
2023/05/23 10:52:14;;;;;;;61.80;35.50;;;19.90;99.90;;;;;;5069591;28;20566;-73
2023/05/23 10:54:57;;;;;;;67.28;33.75;;;19.90;99.90;;;;;;5066610;28;20021;-75
2023/05/23 10:57:26;;;;;;;75.50;36.10;;;19.80;99.90;;;;;;5065970;28;20828;-72
2023/05/23 10:59:52;;;;;;;65.05;35.35;;;19.90;99.90;;;;;;5063876;28;20682;-72
2023/05/23 11:02:25;;;;;;;58.60;34.33;;;19.80;99.90;;;;;;5061694;28;20103;-72
2023/05/23 11:05:21;;;;;;;57.97;34.15;;;19.80;99.90;;;;;;5064326;28;20186;-72
2023/05/23 11:08:07;;;;;;;64.53;37.55;;;19.80;99.90;;;;;;5067057;28;20033;-72
2023/05/23 11:11:00;;;;;;;67.03;37.67;;;19.80;99.90;;;;;;5064307;28;21155;-73
2023/05/23 11:13:51;;;;;;;60.22;34.42;;;19.80;99.90;;;;;;5069629;28;20396;-73
2023/05/23 11:16:23;;;;;;;60.03;35.08;;;19.90;99.90;;;;;;5065786;28;20408;-73
2023/05/23 11:18:49;;;;;;;62.08;34.85;;;20.00;99.90;;;;;;5064659;28;20075;-74
2023/05/23 11:21:16;;;;;;;63.80;35.30;;;20.10;99.90;;;;;;5058064;28;20457;-73
2023/05/23 11:23:42;;;;;;;63.88;35.35;;;20.40;99.90;;;;;;5060637;28;20033;-72
2023/05/23 11:26:34;;;;;;;63.97;33.05;;;20.50;99.90;;;;;;5067181;28;20381;-74
2023/05/23 11:29:02;;;;;;;69.80;34.25;;;20.50;99.90;;;;;;5064608;28;20045;-74
2023/05/23 11:31:27;;;;;;;62.47;31.98;;;20.60;99.90;;;;;;5064584;28;20036;-73
2023/05/23 11:33:54;;;;;;;55.07;32.63;;;20.60;99.90;;;;;;5073560;28;20793;-73
2023/05/23 11:36:22;;;;;;;58.47;32.10;;;20.50;99.90;;;;;;5066665;28;20028;-74
2023/05/23 11:38:52;;;;;;;51.00;31.45;;;20.50;99.90;;;;;;5062289;28;20052;-73
2023/05/23 11:41:18;;;;;;;55.25;32.15;;;20.40;99.90;;;;;;5062178;28;20107;-74
2023/05/23 11:43:53;;;;;;;54.03;32.97;;;20.40;99.90;;;;;;5061131;28;20063;-74
2023/05/23 11:46:18;;;;;;;58.10;33.17;;;20.50;99.90;;;;;;5060292;28;20091;-74
2023/05/23 11:48:48;;;;;;;50.45;32.35;;;20.50;99.90;;;;;;5065557;28;20508;-75
2023/05/23 11:51:14;;;;;;;53.53;31.08;;;20.50;99.90;;;;;;5070940;28;20044;-75
2023/05/23 11:53:40;;;;;;;;;;;20.80;99.90;;;;;;5062166;28;20439;-73
2023/05/23 11:56:06;;;;;;;52.05;31.92;;;21.00;99.90;;;;;;5062334;28;19919;-74
2023/05/23 11:58:37;;;;;;;60.40;34.72;;;21.20;99.90;;;;;;5065539;28;20040;-75
2023/05/23 12:01:05;;;;;;;51.88;30.85;;;21.00;99.90;;;;;;5096658;27;20028;-75
2023/05/23 12:03:32;;;;;;;53.05;30.90;;;20.90;99.90;;;;;;5065976;28;20419;-76
2023/05/23 12:05:58;;;;;;;52.28;29.35;;;20.80;99.90;;;;;;5063534;28;20035;-75
2023/05/23 12:08:24;;;;;;;50.33;29.42;;;21.00;99.90;;;;;;5059485;28;20024;-74
2023/05/23 12:10:57;;;;;;;48.42;30.73;;;20.90;99.90;;;;;;5060969;28;20078;-69
2023/05/23 12:13:24;;;;;;;58.10;30.67;;;21.10;99.90;;;;;;5100966;27;20035;-77
2023/05/23 12:15:56;;;;;;;50.88;31.23;;;21.10;99.90;;;;;;5064385;28;20029;-79
2023/05/23 12:18:22;;;;;;;46.58;28.73;;;21.20;99.90;;;;;;5058037;28;20066;-75
2023/05/23 12:20:49;;;;;;;44.97;27.13;;;21.10;99.90;;;;;;5059278;28;20021;-78
2023/05/23 12:23:21;;;;;;;51.38;28.65;;;21.30;99.90;;;;;;5067486;28;20036;-76
2023/05/23 12:25:51;;;;;;;49.38;28.20;;;21.50;99.90;;;;;;5063286;28;20186;-81
2023/05/23 12:28:17;;;;;;;48.58;28.20;;;21.60;99.90;;;;;;5066216;28;20563;-80
2023/05/23 12:30:43;;;;;;;45.92;27.52;;;21.40;99.90;;;;;;5068051;28;20064;-71
2023/05/23 12:33:09;;;;;;;46.33;29.13;;;21.30;99.90;;;;;;5067061;28;20044;-75
2023/05/23 12:35:34;;;;;;;51.55;30.23;;;21.20;99.90;;;;;;5063206;28;20024;-81